createdAt,value
2023-01-22T00:04:07.590Z,51.35
2023-01-22T00:09:09.415Z,45.55
2023-01-22T00:14:11.460Z,45.67
2023-01-22T00:19:13.272Z,44.92
2023-01-22T00:24:15.039Z,54.00
2023-01-22T00:29:17.139Z,51.40
2023-01-22T00:34:18.837Z,50.50
2023-01-22T00:39:20.524Z,53.53
2023-01-22T00:44:22.308Z,49.45
2023-01-22T00:49:23.976Z,48.28
2023-01-22T00:54:25.635Z,47.30
2023-01-22T00:59:27.315Z,51.63
2023-01-22T01:04:28.949Z,52.25
2023-01-22T01:09:30.737Z,51.28
2023-01-22T01:14:32.491Z,55.08
2023-01-22T01:19:34.162Z,47.47
2023-01-22T01:24:36.536Z,53.00
2023-01-22T01:29:38.172Z,51.00
2023-01-22T01:34:39.837Z,50.33
2023-01-22T01:39:41.619Z,50.53
2023-01-22T01:44:43.338Z,57.55
2023-01-22T01:49:50.840Z,54.40
2023-01-22T01:54:56.336Z,49.83
2023-01-22T01:59:59.945Z,54.05
2023-01-22T02:05:02.413Z,49.15
2023-01-22T02:10:06.237Z,45.28
2023-01-22T02:15:09.224Z,45.53
2023-01-22T02:20:11.467Z,44.30
2023-01-22T02:25:13.134Z,46.65
2023-01-22T02:30:15.216Z,43.83
2023-01-22T02:35:17.273Z,46.83
2023-01-22T02:40:19.413Z,46.33
2023-01-22T02:45:21.397Z,45.28
2023-01-22T02:50:23.029Z,43.75
2023-01-22T02:55:25.113Z,44.65
2023-01-22T03:00:26.920Z,48.17
2023-01-22T03:05:31.045Z,44.95
2023-01-22T03:10:32.755Z,48.92
2023-01-22T03:15:53.041Z,43.88
2023-01-22T03:21:12.949Z,42.45
2023-01-22T03:26:15.444Z,42.63
2023-01-22T03:31:17.457Z,40.85
2023-01-22T03:36:19.305Z,39.88
2023-01-22T03:41:21.036Z,36.90
2023-01-22T03:46:22.758Z,40.67
2023-01-22T03:51:24.908Z,37.50
2023-01-22T03:56:27.774Z,41.40
2023-01-22T04:01:29.678Z,41.60
2023-01-22T04:06:31.410Z,34.70
2023-01-22T04:11:33.139Z,38.80
2023-01-22T04:16:35.735Z,39.40
2023-01-22T04:21:37.576Z,41.88
2023-01-22T04:26:39.324Z,38.85
2023-01-22T04:31:41.184Z,40.58
2023-01-22T04:36:42.989Z,36.20
2023-01-22T04:41:44.720Z,39.60
2023-01-22T04:46:46.461Z,38.95
2023-01-22T04:51:48.135Z,36.28
2023-01-22T04:56:49.816Z,34.83
2023-01-22T05:01:52.786Z,36.47
2023-01-22T05:06:54.574Z,32.80
2023-01-22T05:11:56.310Z,33.88
2023-01-22T05:16:58.131Z,32.75
2023-01-22T05:21:59.829Z,30.88
2023-01-22T05:27:01.674Z,31.95
2023-01-22T05:32:03.615Z,32.97
2023-01-22T05:37:06.258Z,31.83
2023-01-22T05:42:07.987Z,32.17
2023-01-22T05:47:09.985Z,30.20
2023-01-22T05:52:11.737Z,31.60
2023-01-22T05:57:13.455Z,28.48
2023-01-22T06:02:15.243Z,31.13
2023-01-22T06:07:16.962Z,32.00
2023-01-22T06:12:18.704Z,27.77
2023-01-22T06:17:21.505Z,32.47
2023-01-22T06:22:23.833Z,28.77
2023-01-22T06:27:25.673Z,29.38
2023-01-22T06:32:27.404Z,30.15
2023-01-22T06:37:30.094Z,31.42
2023-01-22T06:42:31.927Z,29.80
2023-01-22T06:47:33.655Z,31.15
2023-01-22T06:52:35.447Z,33.92
2023-01-22T06:57:37.305Z,33.65
2023-01-22T07:02:39.075Z,34.35
2023-01-22T07:07:41.324Z,33.88
2023-01-22T07:12:43.052Z,30.08
2023-01-22T07:17:50.911Z,32.35
2023-01-22T07:22:52.613Z,31.27
2023-01-22T07:28:04.323Z,33.30
2023-01-22T07:33:07.042Z,30.55
2023-01-22T07:38:09.910Z,32.15
2023-01-22T07:43:15.101Z,33.60
2023-01-22T07:48:16.896Z,28.52
2023-01-22T07:53:18.713Z,29.38
2023-01-22T07:58:21.573Z,28.45
2023-01-22T08:03:23.420Z,26.97
2023-01-22T08:08:25.203Z,27.70
2023-01-22T08:13:28.104Z,29.10
2023-01-22T08:18:29.859Z,30.17
2023-01-22T08:23:31.716Z,30.08
2023-01-22T08:28:33.481Z,26.15
2023-01-22T08:33:35.231Z,27.55
2023-01-22T08:38:37.013Z,25.80
2023-01-22T08:43:38.746Z,24.10
2023-01-22T08:48:43.220Z,24.98
2023-01-22T08:53:45.016Z,25.63
2023-01-22T08:58:51.341Z,29.50
2023-01-22T09:03:53.041Z,26.50
2023-01-22T09:08:55.320Z,26.98
2023-01-22T09:13:58.045Z,27.90
2023-01-22T09:18:59.814Z,29.15
2023-01-22T09:24:01.536Z,28.20
2023-01-22T09:29:05.913Z,25.08
2023-01-22T09:34:07.834Z,29.08
2023-01-22T09:39:09.882Z,27.40
2023-01-22T09:44:23.040Z,24.00
2023-01-22T09:49:29.485Z,26.87
2023-01-22T09:54:31.489Z,26.33
2023-01-22T09:59:39.204Z,25.83
2023-01-22T10:04:45.251Z,23.17
2023-01-22T10:10:18.379Z,23.45
2023-01-22T10:15:23.871Z,22.10
2023-01-22T10:20:26.543Z,22.50
2023-01-22T10:25:28.748Z,24.33
2023-01-22T10:30:31.036Z,23.17
2023-01-22T10:35:43.025Z,22.20
2023-01-22T10:40:44.717Z,19.67
2023-01-22T10:45:59.544Z,17.98
2023-01-22T10:51:21.101Z,18.52
2023-01-22T10:56:34.565Z,17.88
2023-01-22T11:01:39.480Z,17.65
2023-01-22T11:06:45.731Z,21.90
2023-01-22T11:11:54.973Z,20.85
2023-01-22T11:17:02.137Z,19.38
2023-01-22T11:22:14.729Z,17.92
2023-01-22T11:27:37.281Z,19.70
2023-01-22T11:33:03.929Z,18.50
2023-01-22T11:38:22.135Z,22.33
2023-01-22T11:43:38.896Z,20.73
2023-01-22T11:49:05.802Z,16.80
2023-01-22T11:54:35.205Z,20.00
2023-01-22T12:00:10.607Z,20.80
2023-01-22T12:05:24.467Z,17.73
2023-01-22T12:10:35.464Z,18.27
2023-01-22T12:15:48.228Z,20.00
2023-01-22T12:21:12.169Z,21.02
2023-01-22T12:26:23.987Z,18.40
2023-01-22T12:31:41.818Z,23.27
2023-01-22T12:36:44.961Z,19.50
2023-01-22T12:42:00.473Z,18.90
2023-01-22T12:47:17.280Z,17.17
2023-01-22T12:52:30.143Z,14.55
2023-01-22T12:57:40.931Z,17.80
2023-01-22T13:02:42.702Z,18.65
2023-01-22T13:07:45.159Z,15.93
2023-01-22T13:12:52.531Z,18.80
2023-01-22T13:18:07.117Z,27.83
2023-01-22T13:23:12.923Z,25.42
2023-01-22T13:28:18.789Z,22.90
2023-01-22T13:33:20.515Z,27.10
2023-01-22T13:38:26.028Z,26.10
2023-01-22T13:43:36.112Z,28.52
2023-01-22T13:48:38.362Z,29.70
2023-01-22T13:53:47.019Z,26.30
2023-01-22T13:58:50.391Z,27.10
2023-01-22T14:04:02.861Z,22.40
2023-01-22T14:09:04.957Z,19.88
2023-01-22T14:14:18.272Z,16.33
2023-01-22T14:19:20.091Z,9.67
2023-01-22T14:24:21.839Z,11.63
2023-01-22T14:29:23.780Z,11.45
2023-01-22T14:34:25.512Z,12.55
2023-01-22T14:39:27.444Z,12.57
2023-01-22T14:44:29.163Z,13.65
2023-01-22T14:49:30.918Z,14.55
2023-01-22T14:54:32.906Z,12.25
2023-01-22T14:59:34.659Z,13.70
2023-01-22T15:04:39.921Z,12.48
2023-01-22T15:09:41.684Z,12.35
2023-01-22T15:14:43.389Z,13.77
2023-01-22T15:19:45.073Z,12.88
2023-01-22T15:24:46.781Z,14.15
2023-01-22T15:29:48.572Z,12.50
2023-01-22T15:34:50.243Z,13.45
2023-01-22T15:39:52.264Z,12.90
2023-01-22T15:44:53.927Z,12.95
2023-01-22T15:49:55.578Z,13.57
2023-01-22T15:54:57.580Z,14.20
2023-01-22T15:59:59.257Z,13.75
2023-01-22T16:05:01.012Z,14.52
2023-01-22T16:10:02.917Z,14.80
2023-01-22T16:15:06.662Z,13.20
2023-01-22T16:20:09.857Z,15.13
2023-01-22T16:25:12.309Z,17.45
2023-01-22T16:30:14.302Z,16.27
2023-01-22T16:35:18.336Z,15.48
2023-01-22T16:40:20.390Z,15.43
2023-01-22T16:45:23.515Z,17.55
2023-01-22T16:50:25.179Z,17.87
2023-01-22T16:55:26.871Z,16.52
2023-01-22T17:00:28.568Z,18.17
2023-01-22T17:05:30.354Z,17.00
2023-01-22T17:10:32.136Z,17.73
2023-01-22T17:15:33.937Z,17.88
2023-01-22T17:20:37.199Z,18.27
2023-01-22T17:25:41.999Z,17.33
2023-01-22T17:30:43.756Z,18.88
2023-01-22T17:35:45.545Z,20.85
2023-01-22T17:40:47.278Z,20.02
2023-01-22T17:45:50.270Z,22.30
2023-01-22T17:50:52.071Z,20.47
2023-01-22T17:55:53.810Z,21.23
2023-01-22T18:01:02.083Z,22.52
2023-01-22T18:06:04.577Z,21.95
2023-01-22T18:11:12.585Z,22.17
2023-01-22T18:16:16.821Z,21.95
2023-01-22T18:21:19.539Z,21.85
2023-01-22T18:26:23.010Z,22.02
2023-01-22T18:31:27.113Z,23.85
2023-01-22T18:36:32.600Z,21.85
2023-01-22T18:41:34.462Z,25.65
2023-01-22T18:46:36.978Z,26.75
2023-01-22T18:51:40.252Z,25.55
2023-01-22T18:56:42.334Z,25.43
2023-01-22T19:01:50.432Z,25.80
2023-01-22T19:06:54.146Z,24.08
2023-01-22T19:11:55.975Z,27.23
2023-01-22T19:16:57.746Z,26.10
2023-01-22T19:21:59.470Z,26.60
2023-01-22T19:27:01.354Z,27.25
2023-01-22T19:32:03.158Z,24.20
2023-01-22T19:37:06.352Z,24.00
2023-01-22T19:42:08.052Z,25.00
2023-01-22T19:47:11.151Z,25.90
2023-01-22T19:52:13.413Z,26.60
2023-01-22T19:57:15.539Z,25.80
2023-01-22T20:02:20.764Z,30.15
2023-01-22T20:07:25.097Z,27.75
2023-01-22T20:12:26.965Z,30.17
2023-01-22T20:17:28.628Z,27.52
2023-01-22T20:22:30.495Z,29.25
2023-01-22T20:27:32.211Z,26.08
2023-01-22T20:32:33.963Z,23.73
2023-01-22T20:37:35.653Z,29.15
2023-01-22T20:42:37.981Z,26.40
2023-01-22T20:47:39.781Z,29.77
2023-01-22T20:52:41.473Z,28.45
2023-01-22T20:57:43.174Z,29.10
2023-01-22T21:02:45.014Z,29.13
2023-01-22T21:07:46.943Z,29.65
2023-01-22T21:12:48.570Z,27.15
2023-01-22T21:17:50.311Z,28.05
2023-01-22T21:22:52.010Z,29.00
2023-01-22T21:27:53.700Z,30.27
2023-01-22T21:32:56.137Z,30.42
2023-01-22T21:37:58.139Z,32.67
2023-01-22T21:43:18.298Z,30.48
2023-01-22T21:48:20.014Z,31.38
2023-01-22T21:53:21.740Z,30.80
2023-01-22T21:58:23.486Z,27.48
2023-01-22T22:03:25.255Z,33.30
2023-01-22T22:08:27.323Z,31.08
2023-01-22T22:13:29.617Z,30.35
2023-01-22T22:18:31.421Z,29.58
2023-01-22T22:23:35.168Z,29.55
2023-01-22T22:28:36.904Z,32.20
2023-01-22T22:33:40.143Z,33.08
2023-01-22T22:38:42.531Z,31.85
2023-01-22T22:43:46.046Z,31.02
2023-01-22T22:48:48.725Z,28.65
2023-01-22T22:53:55.957Z,30.58
2023-01-22T22:58:58.963Z,32.22
2023-01-22T23:04:01.168Z,30.53
2023-01-22T23:09:06.396Z,30.60
2023-01-22T23:14:09.897Z,30.95
2023-01-22T23:19:30.283Z,30.90
2023-01-22T23:24:31.979Z,31.75
2023-01-22T23:29:33.620Z,34.90
2023-01-22T23:34:35.348Z,33.15
2023-01-22T23:39:37.219Z,34.75
2023-01-22T23:44:39.026Z,32.78
2023-01-22T23:49:41.042Z,36.10
2023-01-22T23:54:42.731Z,34.78
2023-01-22T23:59:44.512Z,36.45
